sensor_id;sensor_type;location;lat;lon;timestamp;pressure;altitude;pressure_sealevel;temperature;humidity
61128;BME280;47013;42.664;23.242;2023-02-16T00:00:50;95222.16;;;0.43;79.60
61128;BME280;47013;42.664;23.242;2023-02-16T00:03:18;95215.88;;;0.39;80.09
61128;BME280;47013;42.664;23.242;2023-02-16T00:05:44;95228.75;;;0.46;79.82
61128;BME280;47013;42.664;23.242;2023-02-16T00:08:10;95228.72;;;0.28;80.45
61128;BME280;47013;42.664;23.242;2023-02-16T00:10:36;95230.41;;;0.24;80.31
61128;BME280;47013;42.664;23.242;2023-02-16T00:13:16;95228.50;;;0.25;80.63
61128;BME280;47013;42.664;23.242;2023-02-16T00:16:01;95236.50;;;0.25;80.66
61128;BME280;47013;42.664;23.242;2023-02-16T00:18:26;95224.59;;;0.22;80.61
61128;BME280;47013;42.664;23.242;2023-02-16T00:20:51;95223.81;;;0.22;80.45
61128;BME280;47013;42.664;23.242;2023-02-16T00:23:17;95229.13;;;0.22;80.38
61128;BME280;47013;42.664;23.242;2023-02-16T00:25:42;95228.31;;;0.13;81.09
61128;BME280;47013;42.664;23.242;2023-02-16T00:28:14;95220.03;;;0.14;80.36
61128;BME280;47013;42.664;23.242;2023-02-16T00:30:40;95217.00;;;0.07;80.67
61128;BME280;47013;42.664;23.242;2023-02-16T00:33:14;95222.66;;;0.06;80.99
61128;BME280;47013;42.664;23.242;2023-02-16T00:35:40;95223.25;;;0.03;81.32
61128;BME280;47013;42.664;23.242;2023-02-16T00:38:05;95225.94;;;0.03;81.34
61128;BME280;47013;42.664;23.242;2023-02-16T00:40:30;95220.53;;;-0.06;81.63
61128;BME280;47013;42.664;23.242;2023-02-16T00:42:56;95225.72;;;-0.10;82.22
61128;BME280;47013;42.664;23.242;2023-02-16T00:45:21;95221.91;;;-0.17;82.77
61128;BME280;47013;42.664;23.242;2023-02-16T00:47:50;95226.19;;;-0.08;83.14
61128;BME280;47013;42.664;23.242;2023-02-16T00:50:26;95221.16;;;-0.09;82.30
61128;BME280;47013;42.664;23.242;2023-02-16T00:52:51;95218.03;;;-0.11;82.91
61128;BME280;47013;42.664;23.242;2023-02-16T00:55:21;95218.03;;;-0.11;82.81
61128;BME280;47013;42.664;23.242;2023-02-16T00:57:51;95219.91;;;-0.12;83.17
61128;BME280;47013;42.664;23.242;2023-02-16T01:00:39;95217.34;;;-0.17;83.69
61128;BME280;47013;42.664;23.242;2023-02-16T01:03:12;95213.13;;;-0.18;83.79
61128;BME280;47013;42.664;23.242;2023-02-16T01:05:39;95217.66;;;-0.18;83.57
61128;BME280;47013;42.664;23.242;2023-02-16T01:08:13;95216.22;;;-0.24;83.50
61128;BME280;47013;42.664;23.242;2023-02-16T01:10:59;95218.22;;;-0.30;83.60
61128;BME280;47013;42.664;23.242;2023-02-16T01:13:35;95213.50;;;-0.33;84.15
61128;BME280;47013;42.664;23.242;2023-02-16T01:16:02;95214.59;;;-0.34;84.41
61128;BME280;47013;42.664;23.242;2023-02-16T01:18:27;95203.47;;;-0.36;84.20
61128;BME280;47013;42.664;23.242;2023-02-16T01:20:52;95209.38;;;-0.39;84.58
61128;BME280;47013;42.664;23.242;2023-02-16T01:23:18;95204.97;;;-0.44;84.83
61128;BME280;47013;42.664;23.242;2023-02-16T01:25:43;95194.94;;;-0.47;85.00
61128;BME280;47013;42.664;23.242;2023-02-16T01:28:20;95191.16;;;-0.46;84.84
61128;BME280;47013;42.664;23.242;2023-02-16T01:30:46;95191.31;;;-0.51;85.37
61128;BME280;47013;42.664;23.242;2023-02-16T01:33:11;95184.88;;;-0.50;84.91
61128;BME280;47013;42.664;23.242;2023-02-16T01:35:37;95191.47;;;-0.47;85.69
61128;BME280;47013;42.664;23.242;2023-02-16T01:38:02;95181.13;;;-0.49;84.76
61128;BME280;47013;42.664;23.242;2023-02-16T01:46:13;95172.66;;;-0.51;85.50
61128;BME280;47013;42.664;23.242;2023-02-16T01:48:40;95179.59;;;-0.41;85.21
61128;BME280;47013;42.664;23.242;2023-02-16T01:53:45;95177.22;;;-0.43;85.12
61128;BME280;47013;42.664;23.242;2023-02-16T01:56:18;95171.91;;;-0.43;84.06
61128;BME280;47013;42.664;23.242;2023-02-16T01:58:54;95172.53;;;-0.46;84.04
61128;BME280;47013;42.664;23.242;2023-02-16T02:03:57;95170.94;;;-0.47;84.31
61128;BME280;47013;42.664;23.242;2023-02-16T02:06:41;95165.94;;;-0.48;84.36
61128;BME280;47013;42.664;23.242;2023-02-16T02:09:13;95169.50;;;-0.53;84.56
61128;BME280;47013;42.664;23.242;2023-02-16T02:11:56;95178.25;;;-0.52;84.82
61128;BME280;47013;42.664;23.242;2023-02-16T02:14:32;95175.91;;;-0.54;84.86
61128;BME280;47013;42.664;23.242;2023-02-16T02:17:09;95170.47;;;-0.49;84.52
61128;BME280;47013;42.664;23.242;2023-02-16T02:28:09;95163.81;;;-0.60;86.16
61128;BME280;47013;42.664;23.242;2023-02-16T02:33:37;95166.41;;;-0.69;86.51
61128;BME280;47013;42.664;23.242;2023-02-16T02:39:08;95160.00;;;-0.68;86.15
61128;BME280;47013;42.664;23.242;2023-02-16T02:41:51;95155.41;;;-0.76;86.22
61128;BME280;47013;42.664;23.242;2023-02-16T02:44:38;95158.56;;;-0.74;86.51
61128;BME280;47013;42.664;23.242;2023-02-16T02:47:07;95157.31;;;-0.76;87.05
61128;BME280;47013;42.664;23.242;2023-02-16T02:49:32;95163.59;;;-0.72;86.87
61128;BME280;47013;42.664;23.242;2023-02-16T02:51:58;95166.84;;;-0.75;86.82
61128;BME280;47013;42.664;23.242;2023-02-16T02:54:36;95169.44;;;-0.84;86.71
61128;BME280;47013;42.664;23.242;2023-02-16T02:57:32;95175.63;;;-0.97;87.19
61128;BME280;47013;42.664;23.242;2023-02-16T03:00:24;95175.13;;;-0.99;87.67
61128;BME280;47013;42.664;23.242;2023-02-16T03:03:24;95175.31;;;-0.96;87.65
61128;BME280;47013;42.664;23.242;2023-02-16T03:06:34;95179.75;;;-0.91;87.68
61128;BME280;47013;42.664;23.242;2023-02-16T03:09:03;95180.34;;;-0.94;88.22
61128;BME280;47013;42.664;23.242;2023-02-16T03:11:29;95177.81;;;-0.99;87.81
61128;BME280;47013;42.664;23.242;2023-02-16T03:14:16;95178.28;;;-0.97;87.35
61128;BME280;47013;42.664;23.242;2023-02-16T03:16:44;95180.16;;;-0.98;87.31
61128;BME280;47013;42.664;23.242;2023-02-16T03:19:11;95176.41;;;-0.97;86.85
61128;BME280;47013;42.664;23.242;2023-02-16T03:21:57;95172.81;;;-0.92;87.17
61128;BME280;47013;42.664;23.242;2023-02-16T03:24:43;95172.34;;;-0.94;87.12
61128;BME280;47013;42.664;23.242;2023-02-16T03:27:31;95167.81;;;-0.94;87.35
61128;BME280;47013;42.664;23.242;2023-02-16T03:30:17;95165.34;;;-0.90;86.99
61128;BME280;47013;42.664;23.242;2023-02-16T03:32:43;95168.00;;;-0.90;86.79
61128;BME280;47013;42.664;23.242;2023-02-16T03:35:09;95154.31;;;-0.97;86.86
61128;BME280;47013;42.664;23.242;2023-02-16T03:37:38;95158.72;;;-0.93;86.67
61128;BME280;47013;42.664;23.242;2023-02-16T03:40:06;95157.63;;;-0.92;86.63
61128;BME280;47013;42.664;23.242;2023-02-16T03:42:50;95157.00;;;-0.97;87.02
61128;BME280;47013;42.664;23.242;2023-02-16T03:45:17;95159.66;;;-0.97;86.86
61128;BME280;47013;42.664;23.242;2023-02-16T03:47:42;95164.38;;;-0.94;86.92
61128;BME280;47013;42.664;23.242;2023-02-16T03:50:08;95167.50;;;-0.92;86.75
61128;BME280;47013;42.664;23.242;2023-02-16T03:52:33;95170.69;;;-0.90;85.92
61128;BME280;47013;42.664;23.242;2023-02-16T03:54:59;95169.50;;;-0.98;85.48
61128;BME280;47013;42.664;23.242;2023-02-16T03:57:24;95158.88;;;-0.98;86.06
61128;BME280;47013;42.664;23.242;2023-02-16T03:59:50;95156.38;;;-0.94;85.30
61128;BME280;47013;42.664;23.242;2023-02-16T04:02:17;95164.50;;;-0.99;85.93
61128;BME280;47013;42.664;23.242;2023-02-16T04:04:43;95160.91;;;-0.95;85.09
61128;BME280;47013;42.664;23.242;2023-02-16T04:07:08;95164.56;;;-0.91;85.38
61128;BME280;47013;42.664;23.242;2023-02-16T04:09:33;95149.66;;;-0.92;84.93
61128;BME280;47013;42.664;23.242;2023-02-16T04:11:59;95152.03;;;-0.90;85.00
61128;BME280;47013;42.664;23.242;2023-02-16T04:14:43;95151.19;;;-0.99;85.07
61128;BME280;47013;42.664;23.242;2023-02-16T04:17:08;95147.91;;;-0.96;85.27
61128;BME280;47013;42.664;23.242;2023-02-16T04:19:33;95150.56;;;-0.96;85.20
61128;BME280;47013;42.664;23.242;2023-02-16T04:21:59;95144.47;;;-0.97;84.70
61128;BME280;47013;42.664;23.242;2023-02-16T04:24:24;95150.56;;;-0.96;84.76
61128;BME280;47013;42.664;23.242;2023-02-16T04:26:50;95148.81;;;-1.01;84.73
61128;BME280;47013;42.664;23.242;2023-02-16T04:29:15;95144.78;;;-0.98;85.06
61128;BME280;47013;42.664;23.242;2023-02-16T04:31:40;95147.13;;;-0.97;85.06
61128;BME280;47013;42.664;23.242;2023-02-16T04:34:06;95150.56;;;-0.96;85.16
61128;BME280;47013;42.664;23.242;2023-02-16T04:36:31;95145.00;;;-1.08;85.40
61128;BME280;47013;42.664;23.242;2023-02-16T04:38:58;95146.09;;;-1.09;85.67
61128;BME280;47013;42.664;23.242;2023-02-16T04:41:24;95154.56;;;-1.07;85.84
61128;BME280;47013;42.664;23.242;2023-02-16T04:43:50;95151.59;;;-1.06;85.55
61128;BME280;47013;42.664;23.242;2023-02-16T04:46:16;95152.69;;;-1.07;85.59
61128;BME280;47013;42.664;23.242;2023-02-16T04:48:43;95161.44;;;-1.06;85.39
61128;BME280;47013;42.664;23.242;2023-02-16T04:51:08;95167.38;;;-1.09;85.87
61128;BME280;47013;42.664;23.242;2023-02-16T04:53:34;95159.41;;;-1.09;86.06
61128;BME280;47013;42.664;23.242;2023-02-16T04:55:59;95157.81;;;-1.10;85.91
61128;BME280;47013;42.664;23.242;2023-02-16T04:58:25;95159.41;;;-1.45;87.05
61128;BME280;47013;42.664;23.242;2023-02-16T05:00:50;95156.44;;;-1.44;86.68
61128;BME280;47013;42.664;23.242;2023-02-16T05:03:15;95159.00;;;-1.39;86.48
61128;BME280;47013;42.664;23.242;2023-02-16T05:05:41;95159.78;;;-1.38;86.44
61128;BME280;47013;42.664;23.242;2023-02-16T05:08:06;95165.78;;;-1.33;86.72
61128;BME280;47013;42.664;23.242;2023-02-16T05:10:31;95160.84;;;-1.26;86.24
61128;BME280;47013;42.664;23.242;2023-02-16T05:12:57;95167.06;;;-1.30;85.73
61128;BME280;47013;42.664;23.242;2023-02-16T05:15:41;95165.69;;;-1.28;85.69
61128;BME280;47013;42.664;23.242;2023-02-16T05:18:06;95169.91;;;-1.27;85.78
61128;BME280;47013;42.664;23.242;2023-02-16T05:20:32;95167.28;;;-1.40;87.27
61128;BME280;47013;42.664;23.242;2023-02-16T05:23:16;95165.72;;;-1.41;87.04
61128;BME280;47013;42.664;23.242;2023-02-16T05:25:41;95162.06;;;-1.45;86.88
61128;BME280;47013;42.664;23.242;2023-02-16T05:28:07;95165.41;;;-1.40;86.96
61128;BME280;47013;42.664;23.242;2023-02-16T05:30:32;95167.84;;;-1.43;86.73
61128;BME280;47013;42.664;23.242;2023-02-16T05:32:57;95178.09;;;-1.37;87.41
61128;BME280;47013;42.664;23.242;2023-02-16T05:35:23;95182.72;;;-1.29;87.26
61128;BME280;47013;42.664;23.242;2023-02-16T05:37:48;95182.13;;;-1.26;86.59
61128;BME280;47013;42.664;23.242;2023-02-16T05:40:14;95185.44;;;-1.20;85.88
61128;BME280;47013;42.664;23.242;2023-02-16T05:42:39;95181.13;;;-1.16;85.91
61128;BME280;47013;42.664;23.242;2023-02-16T05:45:05;95182.56;;;-1.10;85.95
61128;BME280;47013;42.664;23.242;2023-02-16T05:47:30;95185.63;;;-1.03;86.12
61128;BME280;47013;42.664;23.242;2023-02-16T05:49:56;95189.91;;;-0.93;85.52
61128;BME280;47013;42.664;23.242;2023-02-16T05:52:21;95197.78;;;-0.88;85.40
61128;BME280;47013;42.664;23.242;2023-02-16T05:54:46;95188.69;;;-1.09;85.58
61128;BME280;47013;42.664;23.242;2023-02-16T05:57:12;95191.13;;;-0.99;85.69
61128;BME280;47013;42.664;23.242;2023-02-16T05:59:37;95192.63;;;-0.84;85.46
61128;BME280;47013;42.664;23.242;2023-02-16T06:02:03;95202.63;;;-0.90;84.99
61128;BME280;47013;42.664;23.242;2023-02-16T06:04:28;95204.56;;;-0.82;85.29
61128;BME280;47013;42.664;23.242;2023-02-16T06:06:54;95204.63;;;-0.73;85.16
61128;BME280;47013;42.664;23.242;2023-02-16T06:09:19;95206.91;;;-0.58;84.37
61128;BME280;47013;42.664;23.242;2023-02-16T06:11:45;95195.34;;;-0.53;84.76
61128;BME280;47013;42.664;23.242;2023-02-16T06:14:15;95208.31;;;-0.38;84.32
61128;BME280;47013;42.664;23.242;2023-02-16T06:16:43;95217.00;;;-0.24;84.37
61128;BME280;47013;42.664;23.242;2023-02-16T06:19:10;95215.03;;;-0.10;84.00
61128;BME280;47013;42.664;23.242;2023-02-16T06:21:36;95219.50;;;0.04;83.30
61128;BME280;47013;42.664;23.242;2023-02-16T06:24:02;95214.69;;;0.14;83.26
61128;BME280;47013;42.664;23.242;2023-02-16T06:26:28;95215.53;;;0.32;83.16
61128;BME280;47013;42.664;23.242;2023-02-16T06:28:54;95219.34;;;0.40;82.57
61128;BME280;47013;42.664;23.242;2023-02-16T06:31:20;95211.22;;;0.53;82.47
61128;BME280;47013;42.664;23.242;2023-02-16T06:33:46;95223.47;;;0.63;82.14
61128;BME280;47013;42.664;23.242;2023-02-16T06:36:12;95216.75;;;0.66;82.52
61128;BME280;47013;42.664;23.242;2023-02-16T06:38:38;95218.00;;;0.77;82.48
61128;BME280;47013;42.664;23.242;2023-02-16T06:41:04;95221.94;;;0.79;82.85
61128;BME280;47013;42.664;23.242;2023-02-16T06:43:29;95223.50;;;0.80;82.47
61128;BME280;47013;42.664;23.242;2023-02-16T06:45:54;95218.09;;;2.01;100.00
61128;BME280;47013;42.664;23.242;2023-02-16T06:48:20;95221.22;;;2.12;100.00
61128;BME280;47013;42.664;23.242;2023-02-16T06:50:45;95222.91;;;1.70;100.00
61128;BME280;47013;42.664;23.242;2023-02-16T06:53:10;95236.59;;;1.60;91.42
61128;BME280;47013;42.664;23.242;2023-02-16T06:55:36;95221.19;;;1.39;83.21
61128;BME280;47013;42.664;23.242;2023-02-16T06:58:03;95234.53;;;1.39;81.87
61128;BME280;47013;42.664;23.242;2023-02-16T07:00:28;95230.78;;;1.06;82.61
61128;BME280;47013;42.664;23.242;2023-02-16T07:02:54;95221.94;;;1.66;100.00
61128;BME280;47013;42.664;23.242;2023-02-16T07:05:20;95224.63;;;1.40;88.84
61128;BME280;47013;42.664;23.242;2023-02-16T07:07:45;95214.44;;;1.25;82.89
61128;BME280;47013;42.664;23.242;2023-02-16T07:10:11;95219.78;;;1.25;82.70
61128;BME280;47013;42.664;23.242;2023-02-16T07:12:36;95211.28;;;1.05;82.71
61128;BME280;47013;42.664;23.242;2023-02-16T07:15:02;95209.72;;;1.04;82.83
61128;BME280;47013;42.664;23.242;2023-02-16T07:17:28;95216.63;;;0.97;83.13
61128;BME280;47013;42.664;23.242;2023-02-16T07:19:53;95209.22;;;0.85;83.91
61128;BME280;47013;42.664;23.242;2023-02-16T07:22:19;95212.69;;;0.94;83.82
61128;BME280;47013;42.664;23.242;2023-02-16T07:24:44;95205.63;;;1.07;83.06
61128;BME280;47013;42.664;23.242;2023-02-16T07:27:09;95199.03;;;1.13;82.69
61128;BME280;47013;42.664;23.242;2023-02-16T07:29:35;95196.03;;;0.97;82.78
61128;BME280;47013;42.664;23.242;2023-02-16T07:32:01;95199.66;;;1.01;83.26
61128;BME280;47013;42.664;23.242;2023-02-16T07:34:27;95202.94;;;1.15;82.70
61128;BME280;47013;42.664;23.242;2023-02-16T07:36:52;95200.91;;;1.30;82.10
61128;BME280;47013;42.664;23.242;2023-02-16T07:39:17;95204.84;;;1.50;81.48
61128;BME280;47013;42.664;23.242;2023-02-16T07:41:43;95194.28;;;1.53;80.62
61128;BME280;47013;42.664;23.242;2023-02-16T07:44:09;95196.16;;;1.61;79.70
61128;BME280;47013;42.664;23.242;2023-02-16T07:46:34;95201.00;;;1.76;80.41
61128;BME280;47013;42.664;23.242;2023-02-16T07:49:00;95198.06;;;2.07;79.04
61128;BME280;47013;42.664;23.242;2023-02-16T07:51:27;95203.28;;;2.13;78.80
61128;BME280;47013;42.664;23.242;2023-02-16T07:53:53;95213.34;;;2.45;78.23
61128;BME280;47013;42.664;23.242;2023-02-16T07:56:20;95210.31;;;2.85;81.23
61128;BME280;47013;42.664;23.242;2023-02-16T07:58:46;95209.34;;;3.10;87.89
61128;BME280;47013;42.664;23.242;2023-02-16T08:01:11;95201.88;;;3.37;78.59
61128;BME280;47013;42.664;23.242;2023-02-16T08:03:38;95205.00;;;3.27;73.97
61128;BME280;47013;42.664;23.242;2023-02-16T08:06:04;95207.06;;;3.42;74.09
61128;BME280;47013;42.664;23.242;2023-02-16T08:08:30;95207.25;;;3.58;71.77
61128;BME280;47013;42.664;23.242;2023-02-16T08:10:56;95210.84;;;3.95;72.49
61128;BME280;47013;42.664;23.242;2023-02-16T08:13:22;95214.72;;;4.30;71.21
61128;BME280;47013;42.664;23.242;2023-02-16T08:15:47;95219.53;;;4.61;69.73
61128;BME280;47013;42.664;23.242;2023-02-16T08:18:13;95217.72;;;4.90;68.29
61128;BME280;47013;42.664;23.242;2023-02-16T08:20:39;95214.56;;;5.12;66.49
61128;BME280;47013;42.664;23.242;2023-02-16T08:23:05;95224.25;;;5.41;65.26
61128;BME280;47013;42.664;23.242;2023-02-16T08:25:32;95224.97;;;5.66;63.81
61128;BME280;47013;42.664;23.242;2023-02-16T08:27:58;95226.56;;;5.83;62.71
61128;BME280;47013;42.664;23.242;2023-02-16T08:30:24;95224.09;;;5.90;61.91
61128;BME280;47013;42.664;23.242;2023-02-16T08:32:50;95223.34;;;6.05;62.30
61128;BME280;47013;42.664;23.242;2023-02-16T08:35:16;95220.69;;;6.21;60.46
61128;BME280;47013;42.664;23.242;2023-02-16T08:37:42;95223.81;;;6.23;60.07
61128;BME280;47013;42.664;23.242;2023-02-16T08:40:08;95228.63;;;6.45;60.19
61128;BME280;47013;42.664;23.242;2023-02-16T08:42:35;95226.97;;;6.57;58.22
61128;BME280;47013;42.664;23.242;2023-02-16T08:45:00;95223.81;;;6.86;58.30
61128;BME280;47013;42.664;23.242;2023-02-16T08:47:26;95227.44;;;7.09;57.51
61128;BME280;47013;42.664;23.242;2023-02-16T08:49:51;95220.31;;;7.36;57.26
61128;BME280;47013;42.664;23.242;2023-02-16T08:52:17;95223.56;;;7.26;56.01
61128;BME280;47013;42.664;23.242;2023-02-16T08:54:42;95217.38;;;7.26;56.23
61128;BME280;47013;42.664;23.242;2023-02-16T08:57:08;95212.94;;;7.33;56.00
61128;BME280;47013;42.664;23.242;2023-02-16T08:59:33;95215.66;;;7.53;56.05
61128;BME280;47013;42.664;23.242;2023-02-16T09:01:59;95217.91;;;7.51;55.42
61128;BME280;47013;42.664;23.242;2023-02-16T09:04:25;95216.88;;;7.55;54.83
61128;BME280;47013;42.664;23.242;2023-02-16T09:06:53;95220.50;;;7.63;54.71
61128;BME280;47013;42.664;23.242;2023-02-16T09:09:20;95213.88;;;7.60;54.23
61128;BME280;47013;42.664;23.242;2023-02-16T09:11:46;95210.97;;;7.30;55.20
61128;BME280;47013;42.664;23.242;2023-02-16T09:14:12;95212.00;;;6.75;56.37
61128;BME280;47013;42.664;23.242;2023-02-16T09:16:38;95207.84;;;6.62;57.63
61128;BME280;47013;42.664;23.242;2023-02-16T09:19:08;95215.75;;;6.70;57.90
61128;BME280;47013;42.664;23.242;2023-02-16T09:21:33;95204.25;;;6.89;56.89
61128;BME280;47013;42.664;23.242;2023-02-16T09:24:02;95204.00;;;6.63;57.25
61128;BME280;47013;42.664;23.242;2023-02-16T09:26:34;95204.38;;;6.30;58.11
61128;BME280;47013;42.664;23.242;2023-02-16T09:29:01;95200.97;;;6.48;58.06
61128;BME280;47013;42.664;23.242;2023-02-16T09:31:29;95196.91;;;6.55;57.46
61128;BME280;47013;42.664;23.242;2023-02-16T09:34:14;95192.31;;;6.39;58.34
61128;BME280;47013;42.664;23.242;2023-02-16T09:36:40;95186.81;;;6.20;58.77
61128;BME280;47013;42.664;23.242;2023-02-16T09:39:06;95189.94;;;6.22;59.44
61128;BME280;47013;42.664;23.242;2023-02-16T09:46:57;95180.91;;;6.30;58.59
61128;BME280;47013;42.664;23.242;2023-02-16T09:52:43;95181.50;;;6.08;59.70
61128;BME280;47013;42.664;23.242;2023-02-16T09:54:53;95175.84;;;6.60;84.89
61128;BME280;47013;42.664;23.242;2023-02-16T10:05:34;95162.97;;;6.69;58.85
61128;BME280;47013;42.664;23.242;2023-02-16T10:08:09;95168.78;;;6.87;58.45
61128;BME280;47013;42.664;23.242;2023-02-16T10:22:17;95150.09;;;7.72;55.02
61128;BME280;47013;42.664;23.242;2023-02-16T10:24:59;95154.16;;;8.27;54.01
61128;BME280;47013;42.664;23.242;2023-02-16T10:27:34;95152.81;;;8.86;52.35
61128;BME280;47013;42.664;23.242;2023-02-16T10:30:01;95148.06;;;8.53;51.15
61128;BME280;47013;42.664;23.242;2023-02-16T10:32:31;95149.88;;;8.98;50.85
61128;BME280;47013;42.664;23.242;2023-02-16T10:35:16;95139.03;;;9.55;50.30
61128;BME280;47013;42.664;23.242;2023-02-16T10:38:27;95142.75;;;10.14;47.57
61128;BME280;47013;42.664;23.242;2023-02-16T10:44:00;95121.84;;;11.17;44.39
61128;BME280;47013;42.664;23.242;2023-02-16T10:46:35;95117.25;;;11.32;44.04
61128;BME280;47013;42.664;23.242;2023-02-16T10:49:02;95126.72;;;11.66;43.05
61128;BME280;47013;42.664;23.242;2023-02-16T10:51:32;95114.31;;;11.65;41.71
61128;BME280;47013;42.664;23.242;2023-02-16T10:54:06;95119.50;;;12.13;42.32
61128;BME280;47013;42.664;23.242;2023-02-16T10:59:24;95101.25;;;12.78;39.85
61128;BME280;47013;42.664;23.242;2023-02-16T11:01:54;95104.69;;;12.99;39.46
61128;BME280;47013;42.664;23.242;2023-02-16T11:04:35;95096.06;;;13.44;39.35
61128;BME280;47013;42.664;23.242;2023-02-16T11:09:30;95085.31;;;13.92;37.03
61128;BME280;47013;42.664;23.242;2023-02-16T11:11:55;95080.53;;;14.10;36.55
61128;BME280;47013;42.664;23.242;2023-02-16T11:14:23;95083.41;;;14.41;36.07
61128;BME280;47013;42.664;23.242;2023-02-16T11:17:11;95081.66;;;14.72;35.96
61128;BME280;47013;42.664;23.242;2023-02-16T11:19:53;95084.16;;;14.93;35.23
61128;BME280;47013;42.664;23.242;2023-02-16T11:22:32;95074.94;;;15.18;34.44
61128;BME280;47013;42.664;23.242;2023-02-16T11:28:11;95066.47;;;15.77;33.46
61128;BME280;47013;42.664;23.242;2023-02-16T11:30:58;95064.88;;;16.06;32.90
61128;BME280;47013;42.664;23.242;2023-02-16T11:33:25;95060.56;;;15.78;32.49
61128;BME280;47013;42.664;23.242;2023-02-16T11:35:51;95055.41;;;15.53;32.41
61128;BME280;47013;42.664;23.242;2023-02-16T11:40:51;95056.03;;;15.68;32.64
61128;BME280;47013;42.664;23.242;2023-02-16T11:43:17;95057.16;;;15.71;32.70
61128;BME280;47013;42.664;23.242;2023-02-16T11:45:43;95049.59;;;15.82;32.63
61128;BME280;47013;42.664;23.242;2023-02-16T11:48:13;95058.50;;;16.13;31.89
61128;BME280;47013;42.664;23.242;2023-02-16T11:51:04;95052.81;;;15.73;31.35
61128;BME280;47013;42.664;23.242;2023-02-16T11:53:32;95045.84;;;15.69;32.49
61128;BME280;47013;42.664;23.242;2023-02-16T11:56:23;95048.03;;;15.50;31.90
61128;BME280;47013;42.664;23.242;2023-02-16T11:59:17;95046.75;;;14.90;32.86
61128;BME280;47013;42.664;23.242;2023-02-16T12:07:10;95035.00;;;15.92;31.69
61128;BME280;47013;42.664;23.242;2023-02-16T12:12:54;95024.47;;;15.29;31.68
61128;BME280;47013;42.664;23.242;2023-02-16T12:23:34;95012.06;;;15.52;32.42
61128;BME280;47013;42.664;23.242;2023-02-16T12:26:35;95015.44;;;15.93;31.78
61128;BME280;47013;42.664;23.242;2023-02-16T12:37:20;94994.31;;;16.44;30.96
61128;BME280;47013;42.664;23.242;2023-02-16T12:45:16;94988.53;;;15.88;30.98
61128;BME280;47013;42.664;23.242;2023-02-16T12:47:49;94978.56;;;15.75;31.14
61128;BME280;47013;42.664;23.242;2023-02-16T12:50:27;94983.69;;;15.12;31.85
61128;BME280;47013;42.664;23.242;2023-02-16T12:53:02;94978.16;;;14.85;32.55
61128;BME280;47013;42.664;23.242;2023-02-16T12:55:36;94974.06;;;14.66;32.68
61128;BME280;47013;42.664;23.242;2023-02-16T12:58:16;94970.38;;;14.45;33.32
61128;BME280;47013;42.664;23.242;2023-02-16T13:00:47;94961.94;;;14.26;34.02
61128;BME280;47013;42.664;23.242;2023-02-16T13:03:24;94969.88;;;13.54;34.90
61128;BME280;47013;42.664;23.242;2023-02-16T13:06:13;94972.72;;;13.36;35.08
61128;BME280;47013;42.664;23.242;2023-02-16T13:08:51;94967.31;;;13.25;35.42
61128;BME280;47013;42.664;23.242;2023-02-16T13:11:32;94961.13;;;13.18;35.42
61128;BME280;47013;42.664;23.242;2023-02-16T13:14:02;94963.66;;;12.69;36.30
61128;BME280;47013;42.664;23.242;2023-02-16T13:18:57;94956.41;;;11.88;38.09
61128;BME280;47013;42.664;23.242;2023-02-16T13:29:38;94947.72;;;11.18;39.29
61128;BME280;47013;42.664;23.242;2023-02-16T13:32:32;94959.72;;;11.00;40.15
61128;BME280;47013;42.664;23.242;2023-02-16T13:35:24;94947.69;;;10.97;40.19
61128;BME280;47013;42.664;23.242;2023-02-16T13:40:45;94950.06;;;11.09;39.90
61128;BME280;47013;42.664;23.242;2023-02-16T13:43:31;94941.53;;;11.14;40.02
61128;BME280;47013;42.664;23.242;2023-02-16T13:45:59;94941.56;;;11.21;39.96
61128;BME280;47013;42.664;23.242;2023-02-16T13:48:31;94946.97;;;11.25;39.96
61128;BME280;47013;42.664;23.242;2023-02-16T13:51:06;94938.38;;;10.95;40.26
61128;BME280;47013;42.664;23.242;2023-02-16T13:53:38;94943.28;;;10.60;40.64
61128;BME280;47013;42.664;23.242;2023-02-16T13:56:13;94938.97;;;10.52;41.67
61128;BME280;47013;42.664;23.242;2023-02-16T13:58:46;94932.81;;;10.62;41.77
61128;BME280;47013;42.664;23.242;2023-02-16T14:01:34;94944.50;;;10.74;41.42
61128;BME280;47013;42.664;23.242;2023-02-16T14:22:51;94921.53;;;10.50;41.95
61128;BME280;47013;42.664;23.242;2023-02-16T14:30:48;94928.56;;;10.65;42.29
61128;BME280;47013;42.664;23.242;2023-02-16T14:35:46;94930.13;;;10.66;41.88
61128;BME280;47013;42.664;23.242;2023-02-16T14:38:36;94926.66;;;10.73;42.10
61128;BME280;47013;42.664;23.242;2023-02-16T14:41:39;94935.19;;;10.71;41.78
61128;BME280;47013;42.664;23.242;2023-02-16T14:44:10;94927.03;;;10.68;42.94
61128;BME280;47013;42.664;23.242;2023-02-16T14:47:30;94925.06;;;10.61;42.94
61128;BME280;47013;42.664;23.242;2023-02-16T14:50:06;94921.97;;;10.62;43.23
61128;BME280;47013;42.664;23.242;2023-02-16T14:53:08;94921.56;;;10.57;43.17
61128;BME280;47013;42.664;23.242;2023-02-16T14:59:10;94931.19;;;10.47;43.07
61128;BME280;47013;42.664;23.242;2023-02-16T15:01:27;94933.53;;;10.45;44.12
61128;BME280;47013;42.664;23.242;2023-02-16T15:04:02;94924.56;;;10.38;44.41
61128;BME280;47013;42.664;23.242;2023-02-16T15:06:39;94924.78;;;10.11;46.28
61128;BME280;47013;42.664;23.242;2023-02-16T15:09:17;94925.16;;;10.13;46.33
61128;BME280;47013;42.664;23.242;2023-02-16T15:11:57;94921.28;;;10.14;45.96
61128;BME280;47013;42.664;23.242;2023-02-16T15:14:48;94924.22;;;9.88;46.91
61128;BME280;47013;42.664;23.242;2023-02-16T15:19:54;94921.78;;;9.68;47.99
61128;BME280;47013;42.664;23.242;2023-02-16T15:22:24;94921.31;;;9.63;47.23
61128;BME280;47013;42.664;23.242;2023-02-16T15:25:02;94924.00;;;9.59;48.10
61128;BME280;47013;42.664;23.242;2023-02-16T15:27:28;94921.19;;;9.45;48.58
61128;BME280;47013;42.664;23.242;2023-02-16T15:30:08;94930.34;;;9.33;48.14
61128;BME280;47013;42.664;23.242;2023-02-16T15:32:33;94918.28;;;9.24;49.41
61128;BME280;47013;42.664;23.242;2023-02-16T15:35:09;94932.88;;;9.12;49.02